createdAt,value
2023-04-22T00:07:10.442Z,6.40
2023-04-22T00:13:17.635Z,6.00
2023-04-22T00:16:03.670Z,7.10
2023-04-22T00:18:49.135Z,6.20
2023-04-22T00:24:49.661Z,5.60
2023-04-22T00:27:34.820Z,6.40
2023-04-22T00:30:20.131Z,7.00
2023-04-22T00:33:05.669Z,7.60
2023-04-22T00:35:51.034Z,7.20
2023-04-22T00:38:36.436Z,7.70
2023-04-22T00:41:22.039Z,7.20
2023-04-22T00:44:12.639Z,7.60
2023-04-22T00:46:59.875Z,7.80
2023-04-22T00:49:46.083Z,8.50
2023-04-22T00:55:28.321Z,8.50
2023-04-22T00:58:16.511Z,8.70
2023-04-22T01:04:18.153Z,6.10
2023-04-22T01:07:04.822Z,7.20
2023-04-22T01:09:51.511Z,8.20
2023-04-22T01:15:22.771Z,9.20
2023-04-22T01:18:08.368Z,9.10
2023-04-22T01:20:53.570Z,9.10
2023-04-22T01:26:25.520Z,9.00
2023-04-22T01:32:27.202Z,8.60
2023-04-22T01:35:14.010Z,8.70
2023-04-22T01:37:59.315Z,7.20
2023-04-22T01:40:44.883Z,7.40
2023-04-22T01:43:30.418Z,7.00
2023-04-22T01:46:17.531Z,8.30
2023-04-22T01:49:02.582Z,10.00
2023-04-22T01:54:41.894Z,9.30
2023-04-22T01:57:27.710Z,10.20
2023-04-22T02:00:13.122Z,9.70
2023-04-22T02:02:58.521Z,10.30
2023-04-22T02:05:44.199Z,10.20
2023-04-22T02:11:14.104Z,9.10
2023-04-22T02:13:59.116Z,10.10
2023-04-22T02:16:44.042Z,8.30
2023-04-22T02:19:29.159Z,8.40
2023-04-22T02:22:14.245Z,8.00
2023-04-22T02:25:00.741Z,10.90
2023-04-22T02:27:46.029Z,10.70
2023-04-22T02:30:30.992Z,10.90
2023-04-22T02:33:15.943Z,10.70
2023-04-22T02:36:00.893Z,10.60
2023-04-22T02:38:45.905Z,9.70
2023-04-22T02:41:31.574Z,10.30
2023-04-22T02:44:17.040Z,10.10
2023-04-22T02:52:44.906Z,8.00
2023-04-22T02:55:32.287Z,8.10
2023-04-22T02:58:17.535Z,8.10
2023-04-22T03:01:03.013Z,9.40
2023-04-22T03:03:48.266Z,9.60
2023-04-22T03:06:33.578Z,9.60
2023-04-22T03:09:18.775Z,10.00
2023-04-22T03:12:04.369Z,8.80
2023-04-22T03:14:49.555Z,9.50
2023-04-22T03:17:35.221Z,8.90
2023-04-22T03:20:20.628Z,8.90
2023-04-22T03:23:39.527Z,10.00
2023-04-22T03:26:26.481Z,7.50
2023-04-22T03:29:13.158Z,7.80
2023-04-22T03:31:59.865Z,7.90
2023-04-22T03:34:45.372Z,8.90
2023-04-22T03:37:30.471Z,9.10
2023-04-22T03:48:54.115Z,9.40
2023-04-22T03:51:40.826Z,9.10
2023-04-22T03:57:42.190Z,9.50
2023-04-22T04:00:27.480Z,8.00
2023-04-22T04:03:13.167Z,8.40
2023-04-22T04:05:58.653Z,8.20
2023-04-22T04:08:44.145Z,11.00
2023-04-22T04:11:30.733Z,10.00
2023-04-22T04:14:16.140Z,9.70
2023-04-22T04:17:02.993Z,10.40
2023-04-22T04:19:48.195Z,10.00
2023-04-22T04:22:34.586Z,10.70
2023-04-22T04:25:20.705Z,10.80
2023-04-22T04:28:08.753Z,10.70
2023-04-22T04:33:33.364Z,7.70
2023-04-22T04:36:20.214Z,7.70
2023-04-22T04:39:08.634Z,9.50
2023-04-22T04:44:35.831Z,9.80
2023-04-22T04:47:22.507Z,11.10
2023-04-22T04:50:12.410Z,9.70
2023-04-22T04:52:59.308Z,9.30
2023-04-22T04:55:45.996Z,10.30
2023-04-22T04:58:31.278Z,8.60
2023-04-22T05:01:16.840Z,9.50
2023-04-22T05:04:02.179Z,8.90
2023-04-22T05:06:47.637Z,9.80
2023-04-22T05:09:36.749Z,9.70
2023-04-22T05:12:21.935Z,10.70
2023-04-22T05:15:07.626Z,9.80
2023-04-22T05:17:53.576Z,10.00
2023-04-22T05:20:38.795Z,10.60
2023-04-22T05:23:25.538Z,9.30
2023-04-22T05:26:11.347Z,9.20
2023-04-22T05:28:56.333Z,8.70
2023-04-22T05:31:41.463Z,7.30
2023-04-22T05:40:50.663Z,8.70
2023-04-22T05:46:39.330Z,9.50
2023-04-22T05:49:24.409Z,8.90
2023-04-22T05:54:56.507Z,8.50
2023-04-22T05:57:42.005Z,9.40
2023-04-22T06:00:26.853Z,8.90
2023-04-22T06:03:11.954Z,8.60
2023-04-22T06:06:14.888Z,8.40
2023-04-22T06:09:00.155Z,10.00
2023-04-22T06:20:32.751Z,9.50
2023-04-22T06:23:18.323Z,8.60
2023-04-22T06:32:03.355Z,9.00
2023-04-22T06:34:48.704Z,9.30
2023-04-22T06:40:26.050Z,7.90
2023-04-22T06:43:11.679Z,8.10
2023-04-22T06:45:57.076Z,5.50
2023-04-22T06:48:42.179Z,7.30
2023-04-22T06:51:27.445Z,8.00
2023-04-22T07:03:51.433Z,7.50
2023-04-22T07:09:38.303Z,8.00
2023-04-22T07:12:25.094Z,8.10
2023-04-22T07:21:27.393Z,9.20
2023-04-22T07:24:12.751Z,9.20
2023-04-22T07:29:52.359Z,8.20
2023-04-22T07:35:47.768Z,7.80
2023-04-22T07:38:33.450Z,9.30
2023-04-22T07:41:18.774Z,8.50
2023-04-22T08:04:13.636Z,9.20
2023-04-22T08:09:52.741Z,9.00
2023-04-22T08:27:56.289Z,9.20
2023-04-22T09:24:06.169Z,5.20
2023-04-22T09:40:28.104Z,5.40
2023-04-22T10:19:48.454Z,3.50
2023-04-22T10:42:31.089Z,2.40
2023-04-22T11:07:41.654Z,2.50
2023-04-22T11:10:41.456Z,2.90
2023-04-22T12:30:04.759Z,2.30
2023-04-22T12:36:05.444Z,2.50
2023-04-22T12:52:16.218Z,2.10
2023-04-22T13:01:38.351Z,2.50
2023-04-22T16:11:18.911Z,3.00
2023-04-22T16:21:07.420Z,3.20
2023-04-22T16:52:45.923Z,3.10
2023-04-22T16:55:57.330Z,3.20
2023-04-22T17:37:47.632Z,3.50
2023-04-22T17:40:33.263Z,3.50
2023-04-22T17:53:11.425Z,3.50
2023-04-22T17:58:41.829Z,3.40
2023-04-22T18:17:22.496Z,4.10
2023-04-22T18:20:18.694Z,4.30
2023-04-22T18:23:04.107Z,4.10
2023-04-22T18:25:49.487Z,4.60
2023-04-22T18:28:40.359Z,4.00
2023-04-22T18:56:48.041Z,5.80
2023-04-22T18:59:33.389Z,5.80
2023-04-22T19:02:18.912Z,6.20
2023-04-22T19:11:41.874Z,5.50
2023-04-22T19:14:35.072Z,6.00
2023-04-22T19:17:20.808Z,5.70
2023-04-22T19:20:26.548Z,5.60
2023-04-22T19:23:12.059Z,5.90
2023-04-22T19:25:57.305Z,7.50
2023-04-22T19:28:46.445Z,6.30
2023-04-22T19:31:46.728Z,6.60
2023-04-22T19:34:32.703Z,6.50
2023-04-22T19:37:18.009Z,7.40
2023-04-22T19:53:24.278Z,7.80
2023-04-22T19:59:25.126Z,8.20
2023-04-22T20:08:58.410Z,8.80
2023-04-22T20:21:19.933Z,9.60
2023-04-22T20:24:07.195Z,10.50
2023-04-22T20:26:52.463Z,11.10
2023-04-22T20:29:39.118Z,10.40
2023-04-22T20:32:25.446Z,10.40
2023-04-22T20:35:11.522Z,10.30
2023-04-22T20:38:00.051Z,10.90
2023-04-22T20:40:51.322Z,10.70
2023-04-22T20:43:36.868Z,11.40
2023-04-22T20:46:23.095Z,9.20
2023-04-22T20:49:09.069Z,9.40
2023-04-22T20:51:55.656Z,10.90
2023-04-22T20:54:45.186Z,11.70
2023-04-22T20:57:31.402Z,10.70
2023-04-22T21:00:16.695Z,10.30
2023-04-22T21:03:08.093Z,10.60
2023-04-22T21:05:54.402Z,12.10
2023-04-22T21:11:34.808Z,11.60
2023-04-22T21:14:25.850Z,12.20
2023-04-22T21:17:19.949Z,12.50
2023-04-22T21:20:08.836Z,12.30
2023-04-22T21:22:54.620Z,13.00
2023-04-22T21:25:42.024Z,12.00
2023-04-22T21:28:28.965Z,12.40
2023-04-22T21:31:14.967Z,12.20
2023-04-22T21:34:03.975Z,12.60
2023-04-22T21:36:50.250Z,12.80
2023-04-22T21:39:36.070Z,10.40
2023-04-22T21:42:21.468Z,11.00
2023-04-22T21:45:06.908Z,12.60
2023-04-22T21:47:52.095Z,13.40
2023-04-22T21:50:37.407Z,13.50
2023-04-22T21:53:22.836Z,13.80
2023-04-22T21:56:08.086Z,13.10
2023-04-22T21:58:53.282Z,15.10
2023-04-22T22:01:38.579Z,14.10
2023-04-22T22:04:23.589Z,14.90
2023-04-22T22:07:10.968Z,14.00
2023-04-22T22:12:46.613Z,13.60
2023-04-22T22:19:15.681Z,13.90
2023-04-22T22:22:00.709Z,12.80
2023-04-22T22:24:45.879Z,11.30
2023-04-22T22:27:30.883Z,10.70
2023-04-22T22:30:18.041Z,14.30
2023-04-22T22:33:03.190Z,14.10
2023-04-22T22:35:47.945Z,14.80
2023-04-22T22:38:33.163Z,14.30
2023-04-22T22:44:11.897Z,13.30
2023-04-22T22:46:57.533Z,15.70
2023-04-22T22:49:44.295Z,15.30
2023-04-22T22:55:58.603Z,15.70
2023-04-22T22:58:45.950Z,14.80
2023-04-22T23:01:31.687Z,14.60
2023-04-22T23:04:17.031Z,12.50
2023-04-22T23:10:14.917Z,14.50
2023-04-22T23:13:01.730Z,15.10
2023-04-22T23:15:50.669Z,14.20
2023-04-22T23:21:53.980Z,13.60
2023-04-22T23:24:40.041Z,13.30
2023-04-22T23:27:25.683Z,14.20
2023-04-22T23:30:11.365Z,13.70
2023-04-22T23:32:57.029Z,14.20
2023-04-22T23:38:35.882Z,13.20
2023-04-22T23:44:29.852Z,11.70
2023-04-22T23:47:17.050Z,11.20
2023-04-22T23:50:04.551Z,10.60
2023-04-22T23:52:50.629Z,13.50
2023-04-22T23:55:36.262Z,14.50
2023-04-22T23:58:21.918Z,13.60
